Time;durP1;ratioP1;P1;durP2;ratioP2;P2;SDS_P1;SDS_P2;PMS_P1;PMS_P2;Temp;Humidity;BMP_temperature;BMP_pressure;BME280_temperature;BME280_humidity;BME280_pressure;Samples;Min_cycle;Max_cycle;Signal;HPM_P1;HPM_P2
2023/08/17 00:02:14;;;;;;;7.00;6.40;;;;;;;;;;10325371;28;20387;-76
2023/08/17 00:07:15;;;;;;;7.85;6.70;;;;;;;;;;10323683;28;20038;-77
2023/08/17 00:12:16;;;;;;;9.30;7.07;;;;;;;;;;10325033;28;20049;-77
2023/08/17 00:17:16;;;;;;;7.43;6.70;;;;;;;;;;10322961;28;20119;-77
2023/08/17 00:22:16;;;;;;;7.57;6.87;;;;;;;;;;10322347;28;20038;-75
2023/08/17 00:27:17;;;;;;;7.90;6.93;;;;;;;;;;10320618;28;20038;-75
2023/08/17 00:32:17;;;;;;;7.40;6.60;;;;;;;;;;10321671;28;20045;-77
2023/08/17 00:37:17;;;;;;;9.23;8.07;;;;;;;;;;10322061;28;20053;-76
2023/08/17 00:42:18;;;;;;;7.90;6.97;;;;;;;;;;10325966;28;20475;-76
2023/08/17 00:47:18;;;;;;;7.20;6.50;;;;;;;;;;10323336;28;20293;-74
2023/08/17 00:52:19;;;;;;;7.68;6.88;;;;;;;;;;10330663;28;20037;-74
2023/08/17 00:57:19;;;;;;;8.23;6.90;;;;;;;;;;10328009;28;20050;-75
2023/08/17 01:02:20;;;;;;;7.55;6.85;;;;;;;;;;10301301;28;20046;-76
2023/08/17 01:07:21;;;;;;;7.80;7.05;;;;;;;;;;10305147;28;20069;-74
2023/08/17 01:12:36;;;;;;;7.50;6.72;;;;;;;;;;10317526;28;20038;-75
2023/08/17 01:17:43;;;;;;;7.78;6.82;;;;;;;;;;10293663;28;20165;-76
2023/08/17 01:22:45;;;;;;;7.18;6.47;;;;;;;;;;10320245;28;20039;-75
2023/08/17 01:27:45;;;;;;;8.18;7.32;;;;;;;;;;10314264;28;20038;-74
2023/08/17 01:32:46;;;;;;;8.13;6.63;;;;;;;;;;10307518;28;20043;-74
2023/08/17 01:37:46;;;;;;;7.85;7.13;;;;;;;;;;10302205;28;20150;-74
2023/08/17 01:42:48;;;;;;;8.43;7.23;;;;;;;;;;10299103;28;20047;-73
2023/08/17 01:47:49;;;;;;;8.07;7.27;;;;;;;;;;10305519;28;20034;-73
2023/08/17 01:52:52;;;;;;;8.18;7.38;;;;;;;;;;10331769;28;20046;-73
2023/08/17 01:57:52;;;;;;;9.00;8.18;;;;;;;;;;10326517;28;20058;-76
2023/08/17 02:02:53;;;;;;;8.40;7.00;;;;;;;;;;10317466;28;20038;-73
2023/08/17 02:07:53;;;;;;;7.82;6.95;;;;;;;;;;10318365;28;20061;-73
2023/08/17 02:12:54;;;;;;;8.70;7.80;;;;;;;;;;10316189;28;20096;-75
2023/08/17 02:17:54;;;;;;;8.00;7.20;;;;;;;;;;10302739;28;20050;-76
2023/08/17 02:22:54;;;;;;;8.75;7.05;;;;;;;;;;10317501;28;20058;-75
2023/08/17 02:27:56;;;;;;;8.32;7.15;;;;;;;;;;10296081;28;20161;-75
2023/08/17 02:32:57;;;;;;;10.02;7.10;;;;;;;;;;10319609;28;20033;-73
2023/08/17 02:37:58;;;;;;;7.97;6.50;;;;;;;;;;10317239;28;20060;-73
2023/08/17 02:42:58;;;;;;;7.53;6.82;;;;;;;;;;10286713;28;20053;-75
2023/08/17 02:47:59;;;;;;;7.93;7.23;;;;;;;;;;10330962;28;20037;-75
2023/08/17 02:52:59;;;;;;;8.50;7.60;;;;;;;;;;10325057;28;20042;-74
2023/08/17 02:58:00;;;;;;;7.95;7.15;;;;;;;;;;10301402;28;20054;-75
2023/08/17 03:03:00;;;;;;;8.90;8.00;;;;;;;;;;10314153;28;20042;-74
2023/08/17 03:08:00;;;;;;;8.23;7.43;;;;;;;;;;10314584;28;20067;-74
2023/08/17 03:13:01;;;;;;;8.20;7.40;;;;;;;;;;10315828;28;20811;-74
2023/08/17 03:18:01;;;;;;;7.93;7.05;;;;;;;;;;10309639;28;20313;-74
2023/08/17 03:23:06;;;;;;;8.10;7.07;;;;;;;;;;10287508;28;20732;-75
2023/08/17 03:28:06;;;;;;;9.38;7.63;;;;;;;;;;10318902;28;20049;-76
2023/08/17 03:33:07;;;;;;;8.37;7.60;;;;;;;;;;10314507;28;20342;-74
2023/08/17 03:38:08;;;;;;;9.18;8.27;;;;;;;;;;10317899;28;20406;-73
2023/08/17 03:43:08;;;;;;;8.80;8.00;;;;;;;;;;10319677;28;20097;-73
2023/08/17 03:48:10;;;;;;;8.83;8.03;;;;;;;;;;10294935;28;20051;-73
2023/08/17 03:53:10;;;;;;;8.07;7.28;;;;;;;;;;10321596;28;21109;-73
2023/08/17 03:58:11;;;;;;;9.33;8.33;;;;;;;;;;10298695;28;20069;-73
2023/08/17 04:03:11;;;;;;;10.00;8.80;;;;;;;;;;10309792;28;20293;-74
2023/08/17 04:08:11;;;;;;;9.30;8.40;;;;;;;;;;10288522;28;20803;-74
2023/08/17 04:13:12;;;;;;;8.87;8.07;;;;;;;;;;10313167;28;20494;-75
2023/08/17 04:18:12;;;;;;;9.73;8.73;;;;;;;;;;10300346;28;20535;-76
2023/08/17 04:23:13;;;;;;;9.80;8.73;;;;;;;;;;10297267;28;20139;-74
2023/08/17 04:28:13;;;;;;;10.33;8.70;;;;;;;;;;10303884;28;20956;-75
2023/08/17 04:33:14;;;;;;;9.95;8.00;;;;;;;;;;10313479;28;20316;-76
2023/08/17 04:38:14;;;;;;;9.30;8.50;;;;;;;;;;10317211;28;20073;-75
2023/08/17 04:43:16;;;;;;;10.03;9.03;;;;;;;;;;10322980;28;20050;-75
2023/08/17 04:48:16;;;;;;;9.03;8.23;;;;;;;;;;10322314;28;20510;-75
2023/08/17 04:53:17;;;;;;;9.10;8.13;;;;;;;;;;10329518;28;20307;-76
2023/08/17 04:58:17;;;;;;;9.00;8.10;;;;;;;;;;10323469;28;20046;-77
2023/08/17 05:03:18;;;;;;;9.98;8.98;;;;;;;;;;10304869;28;20043;-74
2023/08/17 05:08:18;;;;;;;10.63;9.17;;;;;;;;;;10316932;28;20042;-77
2023/08/17 05:13:21;;;;;;;8.98;8.15;;;;;;;;;;10312866;28;20036;-76
2023/08/17 05:18:22;;;;;;;9.48;8.20;;;;;;;;;;10301897;28;20217;-75
2023/08/17 05:23:23;;;;;;;9.68;8.73;;;;;;;;;;10304302;28;20126;-76
2023/08/17 05:28:24;;;;;;;9.85;8.75;;;;;;;;;;10302960;28;20042;-76
2023/08/17 05:33:24;;;;;;;9.65;8.68;;;;;;;;;;10318426;28;20433;-76
2023/08/17 05:38:26;;;;;;;9.83;8.27;;;;;;;;;;10291476;28;20054;-76
2023/08/17 05:43:26;;;;;;;10.10;9.03;;;;;;;;;;10320593;28;20030;-77
2023/08/17 05:48:27;;;;;;;9.77;8.83;;;;;;;;;;10318020;28;20045;-77
2023/08/17 05:53:27;;;;;;;9.80;8.80;;;;;;;;;;10305177;28;20034;-77
2023/08/17 05:58:27;;;;;;;9.77;8.77;;;;;;;;;;10309034;28;20050;-77
2023/08/17 06:03:30;;;;;;;9.65;8.48;;;;;;;;;;10321751;28;20372;-78
2023/08/17 06:08:31;;;;;;;10.87;8.50;;;;;;;;;;10317761;28;20830;-80
2023/08/17 06:13:31;;;;;;;10.15;8.57;;;;;;;;;;10320317;28;20046;-79
2023/08/17 06:18:31;;;;;;;9.67;8.67;;;;;;;;;;10315271;28;20168;-77
2023/08/17 06:23:32;;;;;;;9.70;8.80;;;;;;;;;;10299060;28;20046;-76
2023/08/17 06:28:32;;;;;;;9.83;8.93;;;;;;;;;;10312063;28;20912;-79
2023/08/17 06:33:32;;;;;;;8.83;8.03;;;;;;;;;;10320140;28;20381;-77
2023/08/17 06:38:33;;;;;;;9.83;8.30;;;;;;;;;;10317439;28;20100;-79
2023/08/17 06:43:33;;;;;;;9.60;8.57;;;;;;;;;;10313840;28;20050;-75
2023/08/17 06:48:33;;;;;;;9.17;8.30;;;;;;;;;;10299124;28;20312;-76
2023/08/17 06:53:34;;;;;;;8.93;8.07;;;;;;;;;;10317272;28;20103;-77
2023/08/17 06:58:34;;;;;;;9.10;8.20;;;;;;;;;;10319950;28;20046;-77
2023/08/17 07:03:35;;;;;;;9.30;8.37;;;;;;;;;;10316449;28;20096;-78
2023/08/17 07:08:35;;;;;;;9.10;8.20;;;;;;;;;;10329796;28;20034;-79
2023/08/17 07:13:35;;;;;;;8.97;8.17;;;;;;;;;;10319979;28;20034;-79
2023/08/17 07:18:36;;;;;;;8.47;7.60;;;;;;;;;;10323916;28;20326;-78
2023/08/17 07:23:36;;;;;;;9.13;8.17;;;;;;;;;;10316898;28;20061;-77
2023/08/17 07:28:36;;;;;;;9.03;8.20;;;;;;;;;;10299091;28;20292;-77
2023/08/17 07:33:38;;;;;;;9.75;8.75;;;;;;;;;;10321448;28;20042;-78
2023/08/17 07:38:39;;;;;;;9.38;7.75;;;;;;;;;;10328260;28;20066;-77
2023/08/17 07:43:39;;;;;;;10.17;9.17;;;;;;;;;;10325983;28;20038;-77
2023/08/17 07:48:39;;;;;;;10.00;9.00;;;;;;;;;;10331758;28;20030;-76
2023/08/17 07:53:41;;;;;;;;;;;;;;;;;;10318860;28;20794;-77
2023/08/17 07:58:41;;;;;;;9.43;8.40;;;;;;;;;;10320805;28;19933;-78
2023/08/17 08:03:42;;;;;;;10.23;9.23;;;;;;;;;;10327248;28;20034;-78
2023/08/17 08:08:43;;;;;;;9.73;8.70;;;;;;;;;;10304197;28;20038;-78
2023/08/17 08:13:43;;;;;;;9.87;8.87;;;;;;;;;;10328600;28;20778;-79
2023/08/17 08:18:43;;;;;;;9.37;8.17;;;;;;;;;;10327011;28;20049;-77
2023/08/17 08:23:44;;;;;;;8.63;7.93;;;;;;;;;;10318995;28;20401;-77
2023/08/17 08:28:44;;;;;;;9.98;9.07;;;;;;;;;;10319400;28;20282;-76
2023/08/17 08:33:45;;;;;;;9.93;8.93;;;;;;;;;;10331899;28;20026;-77
2023/08/17 08:38:45;;;;;;;8.97;8.17;;;;;;;;;;10328850;28;20112;-75
2023/08/17 08:43:45;;;;;;;9.90;9.00;;;;;;;;;;10327179;28;20076;-75
2023/08/17 08:48:50;;;;;;;10.13;9.13;;;;;;;;;;10329773;28;20299;-78
2023/08/17 08:53:55;;;;;;;10.30;8.90;;;;;;;;;;10361684;28;20066;-80
2023/08/17 08:58:55;;;;;;;10.30;9.20;;;;;;;;;;10342711;28;20073;-76
2023/08/17 09:03:56;;;;;;;12.00;9.40;;;;;;;;;;10339774;28;20050;-77
2023/08/17 09:08:57;;;;;;;9.87;8.93;;;;;;;;;;10317953;28;20100;-82
2023/08/17 09:13:57;;;;;;;11.23;9.60;;;;;;;;;;10331738;28;20033;-77
2023/08/17 09:18:58;;;;;;;10.70;9.23;;;;;;;;;;10326581;28;20050;-81
2023/08/17 09:23:58;;;;;;;10.10;9.20;;;;;;;;;;10316374;28;20049;-77
2023/08/17 09:28:59;;;;;;;11.33;10.20;;;;;;;;;;10314910;28;20052;-79
2023/08/17 09:34:05;;;;;;;10.97;9.83;;;;;;;;;;10324707;28;20046;-78
2023/08/17 09:39:05;;;;;;;12.25;10.30;;;;;;;;;;10309411;28;20050;-78
2023/08/17 09:44:06;;;;;;;9.43;8.63;;;;;;;;;;10333303;28;20738;-73
2023/08/17 09:49:08;;;;;;;10.50;9.50;;;;;;;;;;10322341;28;20142;-75
2023/08/17 09:54:18;;;;;;;10.73;9.45;;;;;;;;;;10322504;28;20467;-75
2023/08/17 09:59:18;;;;;;;10.48;9.57;;;;;;;;;;10302467;28;20046;-82
2023/08/17 10:04:22;;;;;;;11.37;10.17;;;;;;;;;;10328865;28;20054;-84
2023/08/17 10:09:24;;;;;;;10.00;9.10;;;;;;;;;;10354979;28;20339;-82
2023/08/17 10:14:33;;;;;;;10.48;9.48;;;;;;;;;;10342993;28;20118;-85
2023/08/17 10:19:43;;;;;;;9.93;9.02;;;;;;;;;;10328015;28;20053;-82
2023/08/17 10:24:44;;;;;;;10.13;9.23;;;;;;;;;;10337747;28;20094;-86
2023/08/17 10:29:44;;;;;;;10.23;9.43;;;;;;;;;;10345001;28;20033;-85
2023/08/17 10:34:45;;;;;;;11.13;9.53;;;;;;;;;;10347671;28;20066;-87
2023/08/17 10:39:49;;;;;;;10.10;9.20;;;;;;;;;;10335165;28;20038;-88
2023/08/17 10:44:51;;;;;;;9.65;8.85;;;;;;;;;;10337076;28;20034;-85
2023/08/17 10:49:55;;;;;;;10.07;9.07;;;;;;;;;;10317401;28;20565;-84
2023/08/17 10:54:56;;;;;;;10.32;9.43;;;;;;;;;;10335079;28;20049;-84
2023/08/17 11:00:10;;;;;;;10.97;9.50;;;;;;;;;;10374948;28;20046;-87
2023/08/17 11:05:17;;;;;;;9.05;8.25;;;;;;;;;;10370132;28;20045;-87
2023/08/17 11:10:28;;;;;;;10.85;9.85;;;;;;;;;;10387817;28;20030;-85
2023/08/17 11:15:41;;;;;;;10.35;9.35;;;;;;;;;;10382796;28;20408;-88
2023/08/17 11:20:42;;;;;;;9.93;8.88;;;;;;;;;;10383166;28;20022;-86
2023/08/17 11:25:43;;;;;;;10.50;9.60;;;;;;;;;;10365963;28;20049;-85
2023/08/17 11:30:43;;;;;;;10.18;9.07;;;;;;;;;;10370678;28;20038;-86
2023/08/17 11:35:49;;;;;;;10.03;9.13;;;;;;;;;;10372923;28;20045;-86
2023/08/17 11:40:50;;;;;;;9.52;8.82;;;;;;;;;;10375167;28;20043;-89
2023/08/17 11:45:51;;;;;;;10.23;9.30;;;;;;;;;;10402540;28;20108;-86
2023/08/17 11:50:55;;;;;;;10.95;9.95;;;;;;;;;;10389281;28;20053;-87
2023/08/17 11:55:59;;;;;;;11.40;10.23;;;;;;;;;;10395720;28;20052;-86
2023/08/17 12:00:59;;;;;;;10.23;9.15;;;;;;;;;;10366496;28;20050;-87
2023/08/17 12:05:59;;;;;;;9.30;8.40;;;;;;;;;;10394858;28;20092;-84
2023/08/17 12:11:00;;;;;;;9.63;8.73;;;;;;;;;;10409846;28;20482;-81
2023/08/17 12:16:03;;;;;;;10.77;9.27;;;;;;;;;;10414787;28;20029;-83
2023/08/17 12:21:04;;;;;;;8.57;7.88;;;;;;;;;;10395129;28;20614;-82
2023/08/17 12:26:04;;;;;;;9.67;8.77;;;;;;;;;;10420322;28;20054;-83
2023/08/17 12:31:06;;;;;;;8.83;8.03;;;;;;;;;;10415060;28;20073;-83
2023/08/17 12:36:06;;;;;;;8.45;7.65;;;;;;;;;;10379664;28;20400;-84
2023/08/17 12:41:08;;;;;;;8.87;8.10;;;;;;;;;;10387888;28;20037;-83
2023/08/17 12:46:09;;;;;;;9.00;8.18;;;;;;;;;;10344308;28;20069;-81
2023/08/17 12:51:09;;;;;;;10.13;8.73;;;;;;;;;;10381605;28;20056;-80
2023/08/17 12:56:10;;;;;;;10.03;8.80;;;;;;;;;;10366391;28;20096;-81
2023/08/17 13:01:11;;;;;;;8.40;7.60;;;;;;;;;;10382003;28;20148;-82
2023/08/17 13:06:12;;;;;;;8.82;8.02;;;;;;;;;;10386896;28;20579;-81
2023/08/17 13:11:13;;;;;;;8.45;7.75;;;;;;;;;;10374006;28;20034;-81
2023/08/17 13:16:14;;;;;;;9.10;8.30;;;;;;;;;;10380527;28;20041;-82
2023/08/17 13:21:15;;;;;;;9.17;8.47;;;;;;;;;;10352992;28;20512;-81
2023/08/17 13:26:17;;;;;;;9.30;8.40;;;;;;;;;;10373090;28;20072;-80
2023/08/17 13:31:17;;;;;;;8.67;7.93;;;;;;;;;;10369738;28;20080;-80
2023/08/17 13:36:18;;;;;;;8.63;7.83;;;;;;;;;;10368520;28;20064;-74
2023/08/17 13:41:18;;;;;;;;;;;;;;;;;;10362115;28;20072;-76
2023/08/17 13:46:19;;;;;;;8.73;7.93;;;;;;;;;;10528710;22;19915;-85
2023/08/17 13:51:19;;;;;;;8.80;7.90;;;;;;;;;;10382061;28;20041;-84
2023/08/17 13:56:21;;;;;;;8.13;7.53;;;;;;;;;;10385901;28;20030;-85
2023/08/17 14:01:23;;;;;;;8.75;8.00;;;;;;;;;;10387043;28;20037;-85
2023/08/17 14:06:23;;;;;;;11.65;9.50;;;;;;;;;;10399599;28;20045;-85
2023/08/17 14:11:25;;;;;;;10.13;9.23;;;;;;;;;;10391504;28;20061;-86
2023/08/17 14:16:25;;;;;;;9.15;8.27;;;;;;;;;;10382777;28;20031;-85
2023/08/17 14:21:26;;;;;;;;;;;;;;;;;;10384956;28;20050;-85
2023/08/17 14:26:26;;;;;;;9.23;8.43;;;;;;;;;;10375291;28;19918;-76
2023/08/17 14:31:26;;;;;;;9.10;8.40;;;;;;;;;;10339758;28;20034;-77
2023/08/17 14:36:27;;;;;;;8.77;7.97;;;;;;;;;;10353636;28;20136;-77
2023/08/17 14:41:31;;;;;;;9.30;8.37;;;;;;;;;;10355054;28;20088;-75
2023/08/17 14:46:32;;;;;;;9.45;8.65;;;;;;;;;;10353111;28;20088;-77
2023/08/17 14:51:37;;;;;;;9.77;8.50;;;;;;;;;;10353440;28;20111;-75
2023/08/17 14:56:37;;;;;;;9.07;8.30;;;;;;;;;;10355852;28;20087;-75
2023/08/17 15:01:37;;;;;;;9.73;8.80;;;;;;;;;;10355134;28;20252;-78
2023/08/17 15:06:37;;;;;;;9.33;8.43;;;;;;;;;;10355884;28;20073;-76
2023/08/17 15:11:38;;;;;;;10.63;9.63;;;;;;;;;;10359400;28;20133;-74
2023/08/17 15:16:38;;;;;;;9.50;8.70;;;;;;;;;;10353797;28;20073;-75
2023/08/17 15:21:38;;;;;;;9.17;8.37;;;;;;;;;;10352905;28;20034;-74
2023/08/17 15:26:39;;;;;;;10.30;9.40;;;;;;;;;;10350674;28;20033;-75
2023/08/17 15:31:39;;;;;;;9.77;8.93;;;;;;;;;;10358300;28;20381;-77
2023/08/17 15:36:40;;;;;;;10.80;9.70;;;;;;;;;;10351102;28;20117;-75
2023/08/17 15:41:40;;;;;;;11.83;10.83;;;;;;;;;;10336962;28;20044;-76
2023/08/17 15:46:40;;;;;;;10.20;9.30;;;;;;;;;;10355891;28;20115;-74
2023/08/17 15:51:41;;;;;;;9.03;7.63;;;;;;;;;;10367559;28;20049;-75
2023/08/17 15:56:41;;;;;;;7.97;7.37;;;;;;;;;;10358031;28;20045;-78
2023/08/17 16:01:43;;;;;;;9.40;7.30;;;;;;;;;;10330214;28;20034;-76
2023/08/17 16:06:43;;;;;;;;;;;;;;;;;;10344633;28;20121;-77
2023/08/17 16:11:44;;;;;;;8.33;6.20;;;;;;;;;;10339759;28;20663;-78
2023/08/17 16:16:44;;;;;;;7.77;6.93;;;;;;;;;;10343318;28;20390;-78
2023/08/17 16:21:45;;;;;;;8.18;7.38;;;;;;;;;;10341892;28;20101;-76
2023/08/17 16:26:46;;;;;;;17.00;9.68;;;;;;;;;;10345653;28;21089;-75
2023/08/17 16:31:58;;;;;;;12.77;10.00;;;;;;;;;;10352918;28;20041;-77
2023/08/17 16:36:58;;;;;;;14.35;9.98;;;;;;;;;;10339984;28;20761;-74
2023/08/17 16:41:59;;;;;;;11.93;9.57;;;;;;;;;;10337669;28;20148;-75
2023/08/17 16:46:59;;;;;;;13.70;10.80;;;;;;;;;;10336126;28;20306;-76
2023/08/17 16:51:59;;;;;;;13.97;11.30;;;;;;;;;;10343402;28;20411;-81
2023/08/17 16:57:00;;;;;;;14.70;10.53;;;;;;;;;;10361801;28;20400;-75
2023/08/17 17:02:00;;;;;;;16.00;10.30;;;;;;;;;;10354060;28;20308;-76
2023/08/17 17:07:00;;;;;;;15.75;9.85;;;;;;;;;;10354574;28;20300;-76
2023/08/17 17:12:04;;;;;;;11.73;8.27;;;;;;;;;;10345132;28;20166;-76
2023/08/17 17:17:05;;;;;;;11.73;8.43;;;;;;;;;;10345396;28;20408;-74
2023/08/17 17:22:05;;;;;;;12.48;8.55;;;;;;;;;;10353001;28;20046;-77
2023/08/17 17:27:06;;;;;;;11.27;7.72;;;;;;;;;;10357270;28;20034;-75
2023/08/17 17:32:06;;;;;;;8.13;6.13;;;;;;;;;;10333001;28;20052;-75
2023/08/17 17:37:06;;;;;;;5.67;4.63;;;;;;;;;;10352139;28;20067;-77
2023/08/17 17:42:07;;;;;;;4.85;4.43;;;;;;;;;;10346439;28;20049;-79
2023/08/17 17:47:07;;;;;;;4.20;3.60;;;;;;;;;;10334200;28;20042;-80
2023/08/17 17:52:07;;;;;;;6.07;4.27;;;;;;;;;;10360956;28;20065;-79
2023/08/17 17:57:08;;;;;;;7.13;4.40;;;;;;;;;;10347547;28;20771;-80
2023/08/17 18:02:08;;;;;;;6.80;5.22;;;;;;;;;;10354560;28;20502;-81
2023/08/17 18:07:09;;;;;;;7.23;4.77;;;;;;;;;;10346341;28;20100;-83
2023/08/17 18:12:10;;;;;;;9.00;6.65;;;;;;;;;;10349895;28;20048;-79
2023/08/17 18:17:11;;;;;;;7.30;5.38;;;;;;;;;;10348506;28;21186;-78
2023/08/17 18:22:11;;;;;;;8.50;5.67;;;;;;;;;;10347098;28;20045;-78
2023/08/17 18:27:11;;;;;;;8.53;5.23;;;;;;;;;;10347140;28;20041;-80
2023/08/17 18:32:12;;;;;;;7.03;5.80;;;;;;;;;;10354931;28;20049;-77
2023/08/17 18:37:13;;;;;;;6.85;5.10;;;;;;;;;;10359124;28;20316;-79
2023/08/17 18:42:14;;;;;;;7.78;5.38;;;;;;;;;;10348723;28;20045;-79
2023/08/17 18:47:14;;;;;;;4.93;3.92;;;;;;;;;;10349295;28;20129;-80
2023/08/17 18:52:14;;;;;;;5.60;4.07;;;;;;;;;;10339104;28;20376;-79
2023/08/17 18:57:15;;;;;;;4.13;3.50;;;;;;;;;;10341128;28;20569;-78
2023/08/17 19:02:15;;;;;;;5.33;4.40;;;;;;;;;;10340702;28;20292;-77
2023/08/17 19:07:17;;;;;;;6.77;5.10;;;;;;;;;;10347078;28;20029;-80
2023/08/17 19:12:17;;;;;;;6.38;4.60;;;;;;;;;;10322638;28;20046;-77
2023/08/17 19:17:18;;;;;;;7.00;5.33;;;;;;;;;;10340400;28;20050;-78
2023/08/17 19:22:19;;;;;;;8.18;5.55;;;;;;;;;;10345870;28;20380;-76
2023/08/17 19:27:19;;;;;;;8.00;4.88;;;;;;;;;;10340168;28;20480;-79
2023/08/17 19:32:21;;;;;;;7.83;5.50;;;;;;;;;;10339044;28;20030;-77
2023/08/17 19:37:22;;;;;;;7.45;5.97;;;;;;;;;;10340498;28;20050;-79
2023/08/17 19:42:23;;;;;;;6.47;5.47;;;;;;;;;;10343142;28;20862;-79
2023/08/17 19:47:23;;;;;;;7.30;5.40;;;;;;;;;;10344326;28;20038;-78
2023/08/17 19:52:24;;;;;;;7.67;5.67;;;;;;;;;;10345905;28;20494;-80
2023/08/17 19:57:25;;;;;;;5.73;5.10;;;;;;;;;;10344674;28;20309;-79
2023/08/17 20:02:25;;;;;;;5.38;4.60;;;;;;;;;;10337020;28;20078;-78
2023/08/17 20:07:25;;;;;;;4.70;4.10;;;;;;;;;;10345646;28;20049;-79
2023/08/17 20:12:26;;;;;;;4.70;4.20;;;;;;;;;;10338789;28;20300;-78
2023/08/17 20:17:27;;;;;;;5.35;3.83;;;;;;;;;;10344344;28;20050;-77
2023/08/17 20:22:27;;;;;;;6.47;3.87;;;;;;;;;;10342227;28;20033;-79
2023/08/17 20:27:27;;;;;;;4.37;3.93;;;;;;;;;;10340617;28;20289;-80
2023/08/17 20:32:27;;;;;;;6.87;3.90;;;;;;;;;;10342288;28;20042;-78
2023/08/17 20:37:28;;;;;;;5.10;4.03;;;;;;;;;;10340967;28;20457;-77
2023/08/17 20:42:28;;;;;;;5.47;4.07;;;;;;;;;;10352608;28;20423;-78
2023/08/17 20:47:29;;;;;;;5.35;3.72;;;;;;;;;;10356059;28;20857;-79
2023/08/17 20:52:29;;;;;;;4.57;4.00;;;;;;;;;;10353374;28;20487;-77
2023/08/17 20:57:30;;;;;;;4.60;3.58;;;;;;;;;;10354996;28;20049;-80
2023/08/17 21:02:32;;;;;;;7.05;4.80;;;;;;;;;;10349133;28;20068;-79
2023/08/17 21:07:33;;;;;;;5.47;4.20;;;;;;;;;;10356119;28;20038;-78
2023/08/17 21:12:33;;;;;;;6.63;5.00;;;;;;;;;;10338984;28;20069;-78
2023/08/17 21:17:34;;;;;;;6.53;4.72;;;;;;;;;;10357472;28;20045;-79
2023/08/17 21:22:36;;;;;;;7.60;5.07;;;;;;;;;;10342887;28;20030;-79
2023/08/17 21:27:37;;;;;;;6.80;4.97;;;;;;;;;;10354583;28;20288;-78
2023/08/17 21:32:37;;;;;;;6.35;4.93;;;;;;;;;;10331742;28;20038;-78
2023/08/17 21:37:40;;;;;;;5.30;4.53;;;;;;;;;;10329121;28;20045;-78
2023/08/17 21:42:40;;;;;;;6.10;4.93;;;;;;;;;;10350154;28;20037;-80
2023/08/17 21:47:41;;;;;;;6.03;4.43;;;;;;;;;;10349826;28;20041;-80
2023/08/17 21:52:41;;;;;;;5.53;4.67;;;;;;;;;;10354716;28;20034;-81
2023/08/17 21:57:42;;;;;;;8.13;5.18;;;;;;;;;;10351112;28;20318;-79
2023/08/17 22:02:42;;;;;;;5.43;4.77;;;;;;;;;;10345053;28;20052;-79
2023/08/17 22:07:42;;;;;;;5.63;4.40;;;;;;;;;;10349223;28;20281;-81
2023/08/17 22:12:43;;;;;;;7.43;4.93;;;;;;;;;;10343351;28;20041;-80
2023/08/17 22:17:44;;;;;;;7.10;4.83;;;;;;;;;;10344939;28;20395;-81
2023/08/17 22:22:45;;;;;;;6.47;5.07;;;;;;;;;;10345921;28;20049;-80
2023/08/17 22:27:45;;;;;;;6.28;5.18;;;;;;;;;;10354976;28;20048;-81
2023/08/17 22:32:49;;;;;;;5.93;5.18;;;;;;;;;;10329934;28;20042;-80
2023/08/17 22:37:49;;;;;;;6.57;5.00;;;;;;;;;;10335375;28;20047;-82
2023/08/17 22:42:49;;;;;;;5.70;5.10;;;;;;;;;;10351530;28;20834;-78
2023/08/17 22:47:50;;;;;;;6.33;5.10;;;;;;;;;;10356044;28;20053;-79
2023/08/17 22:52:53;;;;;;;6.05;5.28;;;;;;;;;;10354610;28;20041;-79
2023/08/17 22:57:54;;;;;;;6.60;4.95;;;;;;;;;;10354963;28;20057;-80
2023/08/17 23:02:54;;;;;;;5.50;4.73;;;;;;;;;;10349308;28;20045;-80
2023/08/17 23:07:54;;;;;;;6.70;5.80;;;;;;;;;;10348683;28;20041;-79
2023/08/17 23:13:00;;;;;;;7.90;5.07;;;;;;;;;;10349632;28;20054;-81
2023/08/17 23:18:01;;;;;;;8.27;5.53;;;;;;;;;;10354188;28;20053;-80
2023/08/17 23:23:01;;;;;;;5.67;4.83;;;;;;;;;;10351548;28;20045;-81
2023/08/17 23:28:02;;;;;;;7.35;5.63;;;;;;;;;;10352242;28;20038;-80
2023/08/17 23:33:02;;;;;;;6.80;5.60;;;;;;;;;;10348690;28;20510;-80
2023/08/17 23:38:03;;;;;;;8.20;6.53;;;;;;;;;;10354868;28;20325;-80
2023/08/17 23:43:03;;;;;;;6.90;5.50;;;;;;;;;;10354795;28;20038;-78
2023/08/17 23:48:04;;;;;;;6.15;5.55;;;;;;;;;;10358604;28;20052;-78
2023/08/17 23:53:04;;;;;;;7.93;5.93;;;;;;;;;;10357926;28;20088;-80
2023/08/17 23:58:04;;;;;;;8.10;6.40;;;;;;;;;;10354093;28;20042;-79
